Time;durP1;ratioP1;P1;durP2;ratioP2;P2;SDS_P1;SDS_P2;PMS_P1;PMS_P2;Temp;Humidity;BMP_temperature;BMP_pressure;BME280_temperature;BME280_humidity;BME280_pressure;Samples;Min_cycle;Max_cycle;Signal;HPM_P1;HPM_P2
2022/10/08 00:01:16;;;;;;;16.13;3.58;;;;;;;;;;4999069;28;94207;-87
2022/10/08 00:03:47;;;;;;;13.85;2.50;;;;;;;;;;5018562;28;92308;-86
2022/10/08 00:06:15;;;;;;;11.40;2.33;;;;;;;;;;5019689;28;93785;-86
2022/10/08 00:08:43;;;;;;;7.22;1.95;;;;;;;;;;5017639;28;92429;-88
2022/10/08 00:11:11;;;;;;;12.18;2.42;;;;;;;;;;5018052;28;93821;-87
2022/10/08 00:13:41;;;;;;;7.20;2.38;;;;;;;;;;5015400;28;96458;-88
2022/10/08 00:16:08;;;;;;;8.95;2.90;;;;;;;;;;5018039;28;92368;-88
2022/10/08 00:18:35;;;;;;;9.45;2.78;;;;;;;;;;4983832;28;93855;-88
2022/10/08 00:21:05;;;;;;;11.05;2.22;;;;;;;;;;4996037;28;93409;-87
2022/10/08 00:23:33;;;;;;;6.10;2.40;;;;;;;;;;4997533;28;92389;-86
2022/10/08 00:26:02;;;;;;;5.47;1.70;;;;;;;;;;4998668;28;93836;-87
2022/10/08 00:28:28;;;;;;;5.47;2.00;;;;;;;;;;5001072;28;94247;-87
2022/10/08 00:30:54;;;;;;;7.15;1.90;;;;;;;;;;4998711;28;93817;-86
2022/10/08 00:33:21;;;;;;;6.53;1.80;;;;;;;;;;4997208;28;94816;-87
2022/10/08 00:35:47;;;;;;;4.22;1.95;;;;;;;;;;5002446;28;92527;-86
2022/10/08 00:38:13;;;;;;;5.07;1.67;;;;;;;;;;5015817;28;94842;-87
2022/10/08 00:40:43;;;;;;;6.68;1.67;;;;;;;;;;5018080;28;94390;-88
2022/10/08 00:43:13;;;;;;;5.22;1.70;;;;;;;;;;5017107;28;92468;-87
2022/10/08 00:45:41;;;;;;;6.28;1.65;;;;;;;;;;5017277;28;94018;-87
2022/10/08 00:48:11;;;;;;;6.35;1.52;;;;;;;;;;4996213;28;94371;-87
2022/10/08 00:50:38;;;;;;;6.75;2.03;;;;;;;;;;5000307;28;92367;-86
2022/10/08 00:53:06;;;;;;;5.03;2.05;;;;;;;;;;5004771;28;93513;-87
2022/10/08 00:55:34;;;;;;;4.68;1.50;;;;;;;;;;5017106;28;91681;-86
2022/10/08 00:58:15;;;;;;;4.05;1.30;;;;;;;;;;5017187;28;93376;-86
2022/10/08 01:00:43;;;;;;;9.00;2.22;;;;;;;;;;5017477;28;94229;-87
2022/10/08 01:03:09;;;;;;;5.18;1.65;;;;;;;;;;5014804;28;94873;-86
2022/10/08 01:05:43;;;;;;;6.15;2.42;;;;;;;;;;5022653;28;96366;-86
2022/10/08 01:08:28;;;;;;;7.13;2.03;;;;;;;;;;5025578;28;94145;-86
2022/10/08 01:11:13;;;;;;;11.70;2.00;;;;;;;;;;5023007;28;92348;-86
2022/10/08 01:13:43;;;;;;;6.35;1.88;;;;;;;;;;5003814;28;93939;-86
2022/10/08 01:16:09;;;;;;;10.30;1.65;;;;;;;;;;4995835;28;92357;-88
2022/10/08 01:18:42;;;;;;;7.40;1.60;;;;;;;;;;4997030;28;93942;-86
2022/10/08 01:21:13;;;;;;;4.93;1.48;;;;;;;;;;4996938;28;93443;-86
2022/10/08 01:23:45;;;;;;;3.92;1.60;;;;;;;;;;4996200;28;92408;-86
2022/10/08 01:26:12;;;;;;;;;;;;;;;;;;4997104;28;93933;-86
2022/10/08 01:28:44;;;;;;;6.90;1.88;;;;;;;;;;4995337;28;126872;-87
2022/10/08 01:31:19;;;;;;;9.18;1.67;;;;;;;;;;4996041;28;92438;-87
2022/10/08 01:33:45;;;;;;;5.55;1.65;;;;;;;;;;4996988;28;93773;-88
2022/10/08 01:36:13;;;;;;;13.80;1.98;;;;;;;;;;4999325;28;94135;-87
2022/10/08 01:38:43;;;;;;;7.18;1.67;;;;;;;;;;4996386;28;94021;-87
2022/10/08 01:41:11;;;;;;;8.73;1.77;;;;;;;;;;4996321;28;94491;-88
2022/10/08 01:43:41;;;;;;;6.05;1.73;;;;;;;;;;5002978;28;92550;-88
2022/10/08 01:46:14;;;;;;;5.95;1.90;;;;;;;;;;5010824;28;93985;-88
2022/10/08 01:48:41;;;;;;;6.97;1.50;;;;;;;;;;4995841;28;93374;-88
2022/10/08 01:51:07;;;;;;;4.75;1.60;;;;;;;;;;4995301;28;92499;-87
2022/10/08 01:53:37;;;;;;;5.93;2.15;;;;;;;;;;4995339;28;94735;-88
2022/10/08 01:56:04;;;;;;;5.57;1.90;;;;;;;;;;4995628;28;94397;-88
2022/10/08 01:58:35;;;;;;;9.60;2.10;;;;;;;;;;4998809;28;92413;-87
2022/10/08 02:01:04;;;;;;;5.35;1.90;;;;;;;;;;5003932;28;94137;-87
2022/10/08 02:03:31;;;;;;;4.47;1.75;;;;;;;;;;5015888;28;93369;-87
2022/10/08 02:05:58;;;;;;;7.20;2.15;;;;;;;;;;5015301;28;94108;-86
2022/10/08 02:08:25;;;;;;;7.22;2.05;;;;;;;;;;5015538;28;94215;-87
2022/10/08 02:10:52;;;;;;;5.90;2.13;;;;;;;;;;5016784;28;91721;-87
2022/10/08 02:13:19;;;;;;;6.03;2.30;;;;;;;;;;5015382;28;93281;-87
2022/10/08 02:16:10;;;;;;;9.68;2.58;;;;;;;;;;5015672;28;94343;-87
2022/10/08 02:18:40;;;;;;;3.70;2.65;;;;;;;;;;5009105;28;95917;-87
2022/10/08 02:21:13;;;;;;;4.63;2.38;;;;;;;;;;4995415;28;94397;-88
2022/10/08 02:23:42;;;;;;;6.15;2.50;;;;;;;;;;4996065;28;92410;-88
2022/10/08 02:26:15;;;;;;;12.20;3.78;;;;;;;;;;4994555;28;94749;-87
2022/10/08 02:28:48;;;;;;;4.78;3.00;;;;;;;;;;4995720;28;92435;-87
2022/10/08 02:31:14;;;;;;;8.57;3.88;;;;;;;;;;4995755;28;93022;-87
2022/10/08 02:34:01;;;;;;;8.38;3.75;;;;;;;;;;4995246;28;93806;-87
2022/10/08 02:36:30;;;;;;;12.95;3.95;;;;;;;;;;4987619;28;92742;-87
2022/10/08 02:39:07;;;;;;;9.85;4.32;;;;;;;;;;4995669;28;92510;-86
2022/10/08 02:41:36;;;;;;;6.50;4.07;;;;;;;;;;4998163;28;94234;-87
2022/10/08 02:44:05;;;;;;;8.50;4.95;;;;;;;;;;4993453;28;94839;-87
2022/10/08 02:46:34;;;;;;;6.72;4.85;;;;;;;;;;4995672;28;95426;-87
2022/10/08 02:49:04;;;;;;;12.65;5.72;;;;;;;;;;4993951;28;93118;-88
2022/10/08 02:51:33;;;;;;;14.13;6.03;;;;;;;;;;4999718;28;93205;-88
2022/10/08 02:54:03;;;;;;;16.05;6.82;;;;;;;;;;5014599;28;93246;-86
2022/10/08 02:56:39;;;;;;;10.10;7.03;;;;;;;;;;5015532;28;93947;-86
2022/10/08 02:59:06;;;;;;;15.90;7.22;;;;;;;;;;5015573;28;92560;-86
2022/10/08 03:01:46;;;;;;;16.35;7.32;;;;;;;;;;5015420;28;92933;-89
2022/10/08 03:04:31;;;;;;;15.48;7.90;;;;;;;;;;5018195;28;94090;-86
2022/10/08 03:06:58;;;;;;;13.82;7.95;;;;;;;;;;5015712;28;93966;-86
2022/10/08 03:09:27;;;;;;;18.73;7.53;;;;;;;;;;5011916;28;96754;-89
2022/10/08 03:11:53;;;;;;;15.20;7.65;;;;;;;;;;5015851;28;92406;-88
2022/10/08 03:14:22;;;;;;;16.92;7.97;;;;;;;;;;5015068;28;94150;-88
2022/10/08 03:16:48;;;;;;;17.98;8.60;;;;;;;;;;5000730;28;92468;-87
2022/10/08 03:19:16;;;;;;;20.88;9.35;;;;;;;;;;4997428;28;92346;-87
2022/10/08 03:21:43;;;;;;;17.60;8.55;;;;;;;;;;5005123;28;94120;-86
2022/10/08 03:24:11;;;;;;;18.08;8.85;;;;;;;;;;5004456;28;94129;-87
2022/10/08 03:26:37;;;;;;;14.65;8.38;;;;;;;;;;5015068;28;91715;-87
2022/10/08 03:29:04;;;;;;;15.18;8.15;;;;;;;;;;5014140;28;94047;-87
2022/10/08 03:31:31;;;;;;;16.25;8.18;;;;;;;;;;5015030;28;92911;-87
2022/10/08 03:33:57;;;;;;;13.85;8.45;;;;;;;;;;5015311;28;94803;-86
2022/10/08 03:36:24;;;;;;;17.23;8.52;;;;;;;;;;5017848;28;94493;-88
2022/10/08 03:38:51;;;;;;;20.63;8.95;;;;;;;;;;5018278;28;92381;-87
2022/10/08 03:41:17;;;;;;;18.20;8.75;;;;;;;;;;5021498;28;93848;-87
2022/10/08 03:43:44;;;;;;;19.83;8.02;;;;;;;;;;5021437;28;94187;-87
2022/10/08 03:46:11;;;;;;;17.48;8.82;;;;;;;;;;5011322;28;92361;-87
2022/10/08 03:48:38;;;;;;;18.40;9.35;;;;;;;;;;4999519;28;93951;-86
2022/10/08 03:51:09;;;;;;;14.25;8.68;;;;;;;;;;4995072;28;91946;-87
2022/10/08 03:53:36;;;;;;;16.67;7.53;;;;;;;;;;4995824;28;92389;-88
2022/10/08 03:56:03;;;;;;;20.95;7.63;;;;;;;;;;4997357;28;92745;-87
2022/10/08 03:58:30;;;;;;;16.08;7.15;;;;;;;;;;4995992;28;94817;-87
2022/10/08 04:00:57;;;;;;;22.80;7.88;;;;;;;;;;4997452;28;96417;-86
2022/10/08 04:03:24;;;;;;;14.23;6.95;;;;;;;;;;4998157;28;94157;-86
2022/10/08 04:05:50;;;;;;;20.30;6.93;;;;;;;;;;4997382;28;92881;-86
2022/10/08 04:08:17;;;;;;;16.10;7.82;;;;;;;;;;4998050;28;94295;-87
2022/10/08 04:10:43;;;;;;;20.95;7.75;;;;;;;;;;5001047;28;94054;-87
2022/10/08 04:13:09;;;;;;;20.30;8.00;;;;;;;;;;4997065;28;93988;-87
2022/10/08 04:15:36;;;;;;;13.88;7.45;;;;;;;;;;4998633;28;92728;-85
2022/10/08 04:18:02;;;;;;;24.10;7.15;;;;;;;;;;4997721;28;93332;-86
2022/10/08 04:20:28;;;;;;;16.25;6.93;;;;;;;;;;4997195;28;94173;-86
2022/10/08 04:22:55;;;;;;;12.60;6.90;;;;;;;;;;4995464;28;96748;-85
2022/10/08 04:25:21;;;;;;;14.52;7.60;;;;;;;;;;4996461;28;93855;-86
2022/10/08 04:27:48;;;;;;;13.60;6.78;;;;;;;;;;4997864;28;94051;-86
2022/10/08 04:30:15;;;;;;;18.30;7.18;;;;;;;;;;5000002;28;93473;-86
2022/10/08 04:32:42;;;;;;;14.38;6.30;;;;;;;;;;4997375;28;94122;-86
2022/10/08 04:35:08;;;;;;;15.02;5.70;;;;;;;;;;4997515;28;93144;-86
2022/10/08 04:37:34;;;;;;;16.58;6.85;;;;;;;;;;4995735;28;93806;-85
2022/10/08 04:40:01;;;;;;;10.05;6.55;;;;;;;;;;4997147;28;91927;-85
2022/10/08 04:42:27;;;;;;;24.00;6.60;;;;;;;;;;4997100;28;94051;-85
2022/10/08 04:44:53;;;;;;;17.73;6.63;;;;;;;;;;4997512;28;92275;-86
2022/10/08 04:47:20;;;;;;;14.20;5.82;;;;;;;;;;4994587;28;94837;-86
2022/10/08 04:49:46;;;;;;;16.85;6.68;;;;;;;;;;4997270;28;94289;-86
2022/10/08 04:52:15;;;;;;;15.98;5.90;;;;;;;;;;5000687;28;92728;-86
2022/10/08 04:54:41;;;;;;;22.88;6.93;;;;;;;;;;4996504;28;94053;-87
2022/10/08 04:57:08;;;;;;;19.23;6.70;;;;;;;;;;4995633;28;92547;-86
2022/10/08 04:59:34;;;;;;;17.80;6.75;;;;;;;;;;4995980;28;93894;-85
2022/10/08 05:02:00;;;;;;;15.13;6.68;;;;;;;;;;4995087;28;94415;-86
2022/10/08 05:04:27;;;;;;;13.07;6.35;;;;;;;;;;4997521;28;91714;-85
2022/10/08 05:06:53;;;;;;;21.63;6.00;;;;;;;;;;4996947;28;93120;-86
2022/10/08 05:09:19;;;;;;;17.45;6.35;;;;;;;;;;4994423;28;94121;-86
2022/10/08 05:11:48;;;;;;;11.57;6.10;;;;;;;;;;4995278;28;94898;-86
2022/10/08 05:14:15;;;;;;;21.50;6.60;;;;;;;;;;4997238;28;96727;-85
2022/10/08 05:16:41;;;;;;;21.08;6.95;;;;;;;;;;4991836;28;93611;-85
2022/10/08 05:19:07;;;;;;;13.75;5.80;;;;;;;;;;4989177;28;94872;-86
2022/10/08 05:21:34;;;;;;;23.60;6.10;;;;;;;;;;4991461;28;94622;-86
2022/10/08 05:24:05;;;;;;;15.05;5.40;;;;;;;;;;4992760;28;93832;-86
2022/10/08 05:26:33;;;;;;;15.98;5.07;;;;;;;;;;4991480;28;93184;-86
2022/10/08 05:29:19;;;;;;;18.67;5.78;;;;;;;;;;4993157;28;92847;-88
2022/10/08 05:31:46;;;;;;;13.05;5.03;;;;;;;;;;4997597;28;92841;-88
2022/10/08 05:34:12;;;;;;;12.32;4.57;;;;;;;;;;4998248;28;95169;-87
2022/10/08 05:36:39;;;;;;;15.25;4.97;;;;;;;;;;5003812;28;95698;-87
2022/10/08 05:39:06;;;;;;;11.80;5.18;;;;;;;;;;5007525;28;96234;-86
2022/10/08 05:41:33;;;;;;;17.67;5.43;;;;;;;;;;4996505;28;94122;-87
2022/10/08 05:44:02;;;;;;;19.45;5.07;;;;;;;;;;4995645;28;92675;-87
2022/10/08 05:46:30;;;;;;;19.50;4.60;;;;;;;;;;4996132;28;93181;-87
2022/10/08 05:48:57;;;;;;;11.90;4.50;;;;;;;;;;4995680;28;94490;-86
2022/10/08 05:51:24;;;;;;;11.15;5.05;;;;;;;;;;4995169;28;92747;-86
2022/10/08 05:53:51;;;;;;;16.85;4.47;;;;;;;;;;4996734;28;93942;-87
2022/10/08 05:56:19;;;;;;;15.60;4.32;;;;;;;;;;4993871;28;94224;-85
2022/10/08 05:58:46;;;;;;;13.38;4.70;;;;;;;;;;4998611;28;92322;-80
2022/10/08 06:01:20;;;;;;;11.60;4.43;;;;;;;;;;4993788;28;96601;-82
2022/10/08 06:03:50;;;;;;;15.10;4.82;;;;;;;;;;4995119;28;93972;-83
2022/10/08 06:06:17;;;;;;;10.68;3.92;;;;;;;;;;4995160;28;93975;-83
2022/10/08 06:08:43;;;;;;;12.60;3.70;;;;;;;;;;4995320;28;94311;-84
2022/10/08 06:11:09;;;;;;;11.95;3.85;;;;;;;;;;4995030;28;92480;-84
2022/10/08 06:13:36;;;;;;;10.05;3.72;;;;;;;;;;4995931;28;93410;-84
2022/10/08 06:16:06;;;;;;;11.50;3.03;;;;;;;;;;4995518;28;94152;-84
2022/10/08 06:18:37;;;;;;;18.88;3.58;;;;;;;;;;4995447;28;91889;-84
2022/10/08 06:21:05;;;;;;;13.65;3.33;;;;;;;;;;4998335;28;92458;-82
2022/10/08 06:23:32;;;;;;;15.70;2.53;;;;;;;;;;4995690;28;92440;-83
2022/10/08 06:26:02;;;;;;;12.90;3.45;;;;;;;;;;4991506;28;96204;-83
2022/10/08 06:28:28;;;;;;;8.57;2.92;;;;;;;;;;4995234;28;93359;-84
2022/10/08 06:30:55;;;;;;;18.20;4.00;;;;;;;;;;4994923;28;92471;-83
2022/10/08 06:33:21;;;;;;;11.20;2.60;;;;;;;;;;4994484;28;92879;-84
2022/10/08 06:35:48;;;;;;;11.10;2.40;;;;;;;;;;4995012;28;94070;-84
2022/10/08 06:38:14;;;;;;;11.30;2.22;;;;;;;;;;4994962;28;92416;-84
2022/10/08 06:40:40;;;;;;;7.78;2.47;;;;;;;;;;4997074;28;93954;-84
2022/10/08 06:43:11;;;;;;;12.60;3.50;;;;;;;;;;4995195;28;91564;-84
2022/10/08 06:45:38;;;;;;;11.05;3.33;;;;;;;;;;4994842;28;93275;-84
2022/10/08 06:48:05;;;;;;;15.38;2.30;;;;;;;;;;4993440;28;94074;-84
2022/10/08 06:50:31;;;;;;;5.60;1.73;;;;;;;;;;4987969;28;96197;-84
2022/10/08 06:52:57;;;;;;;11.98;2.88;;;;;;;;;;4993456;28;96366;-83
2022/10/08 06:55:24;;;;;;;8.65;2.53;;;;;;;;;;4994574;28;94181;-84
2022/10/08 06:57:50;;;;;;;6.78;2.53;;;;;;;;;;4994889;28;92458;-84
2022/10/08 07:00:16;;;;;;;13.90;3.22;;;;;;;;;;4993345;28;93144;-84
2022/10/08 07:02:43;;;;;;;10.20;2.38;;;;;;;;;;4997678;28;93995;-84
2022/10/08 07:05:10;;;;;;;10.95;2.22;;;;;;;;;;4994566;28;92874;-83
2022/10/08 07:07:36;;;;;;;10.50;1.88;;;;;;;;;;4994369;28;93241;-79
2022/10/08 07:10:03;;;;;;;10.13;2.78;;;;;;;;;;4994290;28;92715;-78
2022/10/08 07:12:30;;;;;;;11.30;2.75;;;;;;;;;;4994565;28;93934;-77
2022/10/08 07:14:56;;;;;;;5.13;1.90;;;;;;;;;;4991552;28;96711;-76
2022/10/08 07:17:25;;;;;;;15.07;2.92;;;;;;;;;;4994617;28;92725;-80
2022/10/08 07:19:51;;;;;;;8.23;2.42;;;;;;;;;;4994133;28;94216;-81
2022/10/08 07:22:17;;;;;;;16.35;2.40;;;;;;;;;;4993292;28;93520;-81
2022/10/08 07:24:44;;;;;;;10.40;2.50;;;;;;;;;;4996073;28;92731;-82
2022/10/08 07:27:10;;;;;;;9.20;2.78;;;;;;;;;;4993944;28;94452;-84
2022/10/08 07:29:36;;;;;;;13.43;2.58;;;;;;;;;;4995906;28;92866;-80
2022/10/08 07:32:03;;;;;;;14.05;2.55;;;;;;;;;;4998030;28;93769;-82
2022/10/08 07:34:29;;;;;;;6.72;2.10;;;;;;;;;;4997886;28;94427;-82
2022/10/08 07:36:55;;;;;;;9.55;2.03;;;;;;;;;;4996873;28;92389;-82
2022/10/08 07:39:22;;;;;;;6.03;1.95;;;;;;;;;;4996195;28;94687;-82
2022/10/08 07:41:48;;;;;;;4.43;2.10;;;;;;;;;;4997249;28;94241;-82
2022/10/08 07:44:15;;;;;;;8.52;2.10;;;;;;;;;;4996651;28;92386;-82
2022/10/08 07:46:43;;;;;;;13.13;2.10;;;;;;;;;;5000528;28;93827;-82
2022/10/08 07:49:09;;;;;;;5.88;2.03;;;;;;;;;;4996251;28;94205;-80
2022/10/08 07:51:36;;;;;;;7.32;2.10;;;;;;;;;;4997663;28;93068;-80
2022/10/08 07:54:03;;;;;;;11.15;2.13;;;;;;;;;;4997175;28;94148;-80
2022/10/08 07:56:30;;;;;;;11.23;2.58;;;;;;;;;;4997152;28;92231;-81
2022/10/08 07:58:57;;;;;;;13.88;2.00;;;;;;;;;;4996902;28;93391;-80
2022/10/08 08:01:28;;;;;;;8.20;1.98;;;;;;;;;;4997313;28;94737;-82
2022/10/08 08:03:56;;;;;;;18.15;2.50;;;;;;;;;;4994808;28;94836;-80
2022/10/08 08:06:25;;;;;;;7.82;2.13;;;;;;;;;;4997452;28;96657;-82
2022/10/08 08:08:51;;;;;;;4.65;1.90;;;;;;;;;;4999852;28;94180;-83
2022/10/08 08:11:19;;;;;;;8.60;1.83;;;;;;;;;;4992216;28;93950;-82
2022/10/08 08:13:45;;;;;;;11.60;2.05;;;;;;;;;;4987335;28;94454;-82
2022/10/08 08:16:16;;;;;;;13.13;2.45;;;;;;;;;;5012167;28;92445;-81
2022/10/08 08:18:44;;;;;;;8.43;2.35;;;;;;;;;;4984995;28;94487;-83
2022/10/08 08:21:12;;;;;;;8.73;2.38;;;;;;;;;;4996354;28;93621;-80
2022/10/08 08:23:44;;;;;;;13.05;2.10;;;;;;;;;;4993875;28;92451;-79
2022/10/08 08:26:12;;;;;;;4.00;1.70;;;;;;;;;;4997924;28;92936;-83
2022/10/08 08:28:40;;;;;;;10.20;2.00;;;;;;;;;;4982762;28;96613;-81
2022/10/08 08:31:14;;;;;;;8.90;2.25;;;;;;;;;;5000884;28;92597;-82
2022/10/08 08:33:41;;;;;;;5.07;1.85;;;;;;;;;;4992551;28;94312;-82
2022/10/08 08:36:08;;;;;;;11.77;1.70;;;;;;;;;;4996248;28;92614;-85
2022/10/08 08:38:36;;;;;;;14.63;2.35;;;;;;;;;;5002030;28;92977;-85
2022/10/08 08:41:26;;;;;;;6.10;2.38;;;;;;;;;;4995584;28;94149;-84
2022/10/08 08:44:01;;;;;;;5.32;1.73;;;;;;;;;;4986123;28;93394;-85
2022/10/08 08:46:30;;;;;;;9.33;2.50;;;;;;;;;;4996079;28;92827;-83
2022/10/08 08:48:58;;;;;;;8.25;1.80;;;;;;;;;;4997023;28;94601;-83
2022/10/08 08:51:24;;;;;;;6.50;2.38;;;;;;;;;;4992574;28;94842;-82
2022/10/08 08:53:50;;;;;;;7.65;2.65;;;;;;;;;;4985950;28;96494;-83
2022/10/08 08:56:21;;;;;;;14.25;2.63;;;;;;;;;;4996072;28;93958;-83
2022/10/08 08:58:58;;;;;;;7.43;2.05;;;;;;;;;;4999409;28;93955;-80
2022/10/08 09:01:43;;;;;;;9.02;2.20;;;;;;;;;;4999012;28;94375;-81
2022/10/08 09:04:26;;;;;;;6.60;1.83;;;;;;;;;;4999097;28;92377;-81
2022/10/08 09:06:55;;;;;;;6.72;1.88;;;;;;;;;;4997093;28;94045;-81
2022/10/08 09:09:28;;;;;;;5.70;1.73;;;;;;;;;;4980269;28;93820;-81
2022/10/08 09:11:54;;;;;;;7.13;1.92;;;;;;;;;;4981204;28;91758;-81
2022/10/08 09:14:33;;;;;;;7.85;1.45;;;;;;;;;;4982220;28;93134;-80
2022/10/08 09:17:03;;;;;;;7.43;1.85;;;;;;;;;;4979492;28;92395;-81
2022/10/08 09:19:30;;;;;;;6.78;2.03;;;;;;;;;;4990767;28;94799;-81
2022/10/08 09:21:56;;;;;;;7.85;1.70;;;;;;;;;;4998708;28;94726;-83
2022/10/08 09:24:23;;;;;;;15.52;1.90;;;;;;;;;;4997348;28;92370;-86
2022/10/08 09:26:52;;;;;;;5.40;1.85;;;;;;;;;;4999117;28;93171;-85
2022/10/08 09:29:32;;;;;;;6.93;1.90;;;;;;;;;;5000552;28;93145;-83
2022/10/08 09:31:59;;;;;;;5.40;1.27;;;;;;;;;;4999913;28;92232;-83
2022/10/08 09:34:27;;;;;;;7.70;2.03;;;;;;;;;;5001910;28;92816;-82
2022/10/08 09:37:00;;;;;;;6.50;2.00;;;;;;;;;;5005148;28;91549;-82
2022/10/08 09:39:27;;;;;;;4.45;1.52;;;;;;;;;;5000242;28;93848;-81
2022/10/08 09:42:06;;;;;;;5.50;1.60;;;;;;;;;;4999724;28;92337;-81
2022/10/08 09:44:45;;;;;;;7.55;2.00;;;;;;;;;;4998362;28;94921;-81
2022/10/08 09:47:13;;;;;;;8.85;2.42;;;;;;;;;;4999845;28;96269;-83
2022/10/08 09:49:40;;;;;;;5.20;1.60;;;;;;;;;;5000315;28;94412;-82
2022/10/08 09:52:06;;;;;;;6.13;1.92;;;;;;;;;;4978576;28;92515;-82
2022/10/08 09:54:35;;;;;;;4.55;1.65;;;;;;;;;;4976553;28;93863;-83
2022/10/08 09:57:01;;;;;;;7.68;1.88;;;;;;;;;;4974620;28;94830;-83
2022/10/08 09:59:29;;;;;;;9.38;1.98;;;;;;;;;;4978618;28;92419;-82
2022/10/08 10:01:56;;;;;;;8.15;2.30;;;;;;;;;;4976414;28;93378;-83
2022/10/08 10:04:32;;;;;;;5.70;2.03;;;;;;;;;;4975269;28;92465;-83
2022/10/08 10:06:58;;;;;;;9.15;1.90;;;;;;;;;;4975633;28;93236;-82
2022/10/08 10:09:29;;;;;;;9.20;1.85;;;;;;;;;;4973607;28;96658;-83
2022/10/08 10:12:14;;;;;;;8.73;2.00;;;;;;;;;;4974667;28;92457;-83
2022/10/08 10:14:51;;;;;;;14.10;2.10;;;;;;;;;;4975809;28;94084;-82
2022/10/08 10:17:21;;;;;;;12.18;2.28;;;;;;;;;;4974416;28;93362;-83
2022/10/08 10:19:51;;;;;;;7.57;1.67;;;;;;;;;;4992620;28;92466;-83
2022/10/08 10:22:28;;;;;;;5.95;1.98;;;;;;;;;;4997617;28;93938;-83
2022/10/08 10:25:12;;;;;;;8.48;1.30;;;;;;;;;;4994088;28;92373;-83
2022/10/08 10:27:44;;;;;;;8.20;1.90;;;;;;;;;;4996174;28;92854;-83
2022/10/08 10:30:11;;;;;;;13.88;3.17;;;;;;;;;;4994550;28;94220;-83
2022/10/08 10:32:40;;;;;;;10.85;1.88;;;;;;;;;;4994195;28;92844;-84
2022/10/08 10:35:26;;;;;;;11.85;2.67;;;;;;;;;;4993293;28;94744;-83
2022/10/08 10:37:57;;;;;;;8.13;1.90;;;;;;;;;;4993260;28;95360;-83
2022/10/08 10:40:29;;;;;;;5.00;1.50;;;;;;;;;;4995034;28;92373;-83
2022/10/08 10:43:12;;;;;;;6.85;1.30;;;;;;;;;;4997969;28;92833;-82
2022/10/08 10:45:40;;;;;;;4.88;1.73;;;;;;;;;;4994454;28;92428;-83
2022/10/08 10:48:08;;;;;;;2.42;1.65;;;;;;;;;;4994572;28;93870;-82
2022/10/08 10:50:39;;;;;;;6.45;2.30;;;;;;;;;;4994440;28;94008;-83
2022/10/08 10:53:05;;;;;;;7.95;2.03;;;;;;;;;;4994251;28;91754;-82
2022/10/08 10:55:34;;;;;;;5.90;1.50;;;;;;;;;;4994617;28;93289;-83
2022/10/08 10:58:21;;;;;;;2.40;1.00;;;;;;;;;;4994318;28;93061;-83
2022/10/08 11:00:53;;;;;;;7.55;1.30;;;;;;;;;;4992311;28;94762;-82
2022/10/08 11:03:19;;;;;;;7.25;1.73;;;;;;;;;;4994253;28;95635;-83
2022/10/08 11:05:49;;;;;;;6.40;1.88;;;;;;;;;;5000727;28;94591;-84
2022/10/08 11:08:24;;;;;;;6.57;2.28;;;;;;;;;;4997388;28;93888;-83
2022/10/08 11:11:15;;;;;;;4.95;1.63;;;;;;;;;;4998140;28;93182;-83
2022/10/08 11:13:54;;;;;;;8.80;1.42;;;;;;;;;;4997258;28;92348;-83
2022/10/08 11:16:27;;;;;;;6.72;1.88;;;;;;;;;;4997877;28;94292;-83
2022/10/08 11:18:54;;;;;;;7.70;1.30;;;;;;;;;;4997960;28;92787;-83
2022/10/08 11:21:39;;;;;;;6.50;1.90;;;;;;;;;;4997143;28;92450;-83
2022/10/08 11:24:16;;;;;;;5.65;1.45;;;;;;;;;;4996037;28;93341;-83
2022/10/08 11:26:42;;;;;;;7.85;1.55;;;;;;;;;;4995762;28;96512;-83
2022/10/08 11:29:15;;;;;;;5.05;1.63;;;;;;;;;;5000194;28;92468;-83
2022/10/08 11:31:44;;;;;;;10.63;1.80;;;;;;;;;;4997734;28;94150;-83
2022/10/08 11:34:19;;;;;;;6.90;1.92;;;;;;;;;;4997103;28;92489;-82
2022/10/08 11:36:48;;;;;;;15.30;7.38;;;;;;;;;;4997925;28;93020;-82
2022/10/08 11:39:27;;;;;;;5.57;1.83;;;;;;;;;;4997117;28;94144;-82
2022/10/08 11:41:53;;;;;;;9.98;2.72;;;;;;;;;;4996940;28;92324;-82
2022/10/08 11:44:20;;;;;;;12.32;1.98;;;;;;;;;;4997777;28;93183;-82
2022/10/08 11:46:46;;;;;;;13.95;1.80;;;;;;;;;;4997825;28;92418;-82
2022/10/08 11:49:13;;;;;;;5.70;2.10;;;;;;;;;;4996049;28;92562;-82
2022/10/08 11:51:40;;;;;;;5.75;1.50;;;;;;;;;;4998478;28;94737;-83
2022/10/08 11:54:09;;;;;;;13.05;3.63;;;;;;;;;;4997163;28;92447;-83
2022/10/08 11:56:37;;;;;;;6.65;1.63;;;;;;;;;;4996148;28;93285;-83
2022/10/08 11:59:09;;;;;;;8.30;1.55;;;;;;;;;;4997022;28;94650;-83
2022/10/08 12:01:55;;;;;;;10.30;2.63;;;;;;;;;;4997384;28;92372;-83
2022/10/08 12:04:27;;;;;;;7.85;2.42;;;;;;;;;;4996677;28;93907;-82
2022/10/08 12:07:21;;;;;;;3.67;1.20;;;;;;;;;;4997295;28;95690;-82
2022/10/08 12:10:01;;;;;;;12.05;2.85;;;;;;;;;;4980655;28;91891;-83
2022/10/08 12:12:46;;;;;;;13.55;2.10;;;;;;;;;;4997224;28;93152;-83
2022/10/08 12:15:22;;;;;;;15.77;2.55;;;;;;;;;;4998657;28;94080;-82
2022/10/08 12:17:58;;;;;;;9.90;2.53;;;;;;;;;;4995104;28;95670;-83
2022/10/08 12:20:25;;;;;;;15.80;2.35;;;;;;;;;;4997451;28;93933;-82
2022/10/08 12:22:59;;;;;;;5.22;1.92;;;;;;;;;;4996860;28;92458;-83
2022/10/08 12:25:31;;;;;;;10.50;2.80;;;;;;;;;;4996077;28;94336;-83
2022/10/08 12:28:16;;;;;;;9.82;2.00;;;;;;;;;;4997030;28;94085;-83
2022/10/08 12:30:45;;;;;;;7.95;2.03;;;;;;;;;;4996371;28;92424;-83
2022/10/08 12:33:11;;;;;;;8.68;1.80;;;;;;;;;;4996521;28;93886;-83
2022/10/08 12:35:59;;;;;;;7.72;1.92;;;;;;;;;;4996601;28;93424;-83
2022/10/08 12:38:32;;;;;;;8.30;2.17;;;;;;;;;;4997547;28;92483;-82
2022/10/08 12:40:58;;;;;;;6.55;2.00;;;;;;;;;;4996352;28;94090;-82
2022/10/08 12:43:30;;;;;;;9.48;2.13;;;;;;;;;;4995124;28;94855;-83
2022/10/08 12:46:09;;;;;;;5.45;1.70;;;;;;;;;;4995325;28;96634;-83
2022/10/08 12:48:35;;;;;;;13.63;3.17;;;;;;;;;;4996609;28;94040;-83
2022/10/08 12:51:13;;;;;;;6.05;1.95;;;;;;;;;;4996253;28;92412;-84
2022/10/08 12:53:44;;;;;;;7.20;2.25;;;;;;;;;;4995901;28;93964;-84
2022/10/08 12:56:15;;;;;;;9.02;1.73;;;;;;;;;;4994312;28;94145;-81
2022/10/08 12:58:43;;;;;;;7.37;2.60;;;;;;;;;;4998765;28;92365;-79
2022/10/08 13:01:12;;;;;;;14.32;2.33;;;;;;;;;;4996557;28;93495;-78
2022/10/08 13:03:39;;;;;;;9.73;1.92;;;;;;;;;;4996417;28;92416;-78
2022/10/08 13:06:13;;;;;;;12.68;2.92;;;;;;;;;;4995892;28;93884;-83
2022/10/08 13:08:41;;;;;;;7.00;2.30;;;;;;;;;;4992215;28;96589;-78
2022/10/08 13:11:12;;;;;;;6.38;1.88;;;;;;;;;;4988244;28;92467;-78
2022/10/08 13:13:38;;;;;;;10.60;2.20;;;;;;;;;;4975647;28;93944;-78
2022/10/08 13:16:06;;;;;;;11.77;2.70;;;;;;;;;;4988928;28;93156;-78
2022/10/08 13:18:34;;;;;;;12.48;3.17;;;;;;;;;;4996107;28;92385;-80
2022/10/08 13:21:06;;;;;;;10.43;2.72;;;;;;;;;;4998066;28;94056;-78
2022/10/08 13:23:41;;;;;;;10.98;2.08;;;;;;;;;;4995847;28;92442;-77
2022/10/08 13:26:26;;;;;;;6.38;1.73;;;;;;;;;;4994355;28;93875;-79
2022/10/08 13:29:13;;;;;;;10.40;2.10;;;;;;;;;;4995157;28;94191;-80
2022/10/08 13:31:39;;;;;;;7.32;2.47;;;;;;;;;;4995597;28;92489;-79
2022/10/08 13:34:13;;;;;;;10.30;2.45;;;;;;;;;;4993658;28;94725;-80
2022/10/08 13:36:45;;;;;;;10.52;2.35;;;;;;;;;;4995539;28;94134;-82
2022/10/08 13:39:22;;;;;;;12.63;2.42;;;;;;;;;;4995680;28;92441;-81
2022/10/08 13:41:50;;;;;;;6.70;1.95;;;;;;;;;;4995535;28;94107;-79
2022/10/08 13:44:17;;;;;;;7.10;2.28;;;;;;;;;;4998467;28;94143;-80
2022/10/08 13:46:44;;;;;;;7.38;1.95;;;;;;;;;;4995797;28;93853;-79
2022/10/08 13:49:28;;;;;;;7.38;1.50;;;;;;;;;;4994468;28;94282;-80
2022/10/08 13:51:57;;;;;;;7.10;2.65;;;;;;;;;;4996280;28;91640;-79
2022/10/08 13:54:24;;;;;;;8.70;1.90;;;;;;;;;;4995764;28;92916;-78
2022/10/08 13:56:51;;;;;;;11.15;1.83;;;;;;;;;;4994666;28;93616;-80
2022/10/08 13:59:18;;;;;;;14.40;1.92;;;;;;;;;;4993951;28;94879;-80
2022/10/08 14:01:44;;;;;;;3.63;1.48;;;;;;;;;;4995510;28;96282;-80
2022/10/08 14:04:11;;;;;;;8.45;1.92;;;;;;;;;;4994140;28;94190;-81
2022/10/08 14:06:38;;;;;;;12.55;2.22;;;;;;;;;;4998252;28;92447;-81
2022/10/08 14:09:05;;;;;;;9.20;1.92;;;;;;;;;;4993704;28;94148;-81
2022/10/08 14:11:31;;;;;;;8.00;2.25;;;;;;;;;;4978044;28;92504;-81
2022/10/08 14:13:58;;;;;;;7.95;1.98;;;;;;;;;;4995107;28;93935;-80
2022/10/08 14:16:24;;;;;;;9.32;1.83;;;;;;;;;;4994775;28;92837;-79
2022/10/08 14:18:50;;;;;;;4.47;1.73;;;;;;;;;;4994966;28;92421;-80
2022/10/08 14:21:17;;;;;;;8.55;1.73;;;;;;;;;;4995021;28;93878;-79
2022/10/08 14:23:43;;;;;;;5.97;1.75;;;;;;;;;;4992491;28;97141;-79
2022/10/08 14:26:12;;;;;;;4.43;1.40;;;;;;;;;;4987802;28;92437;-79
2022/10/08 14:28:39;;;;;;;7.72;1.65;;;;;;;;;;4992910;28;93937;-78
2022/10/08 14:31:05;;;;;;;4.03;1.85;;;;;;;;;;4993077;28;92981;-80
2022/10/08 14:33:32;;;;;;;4.22;1.60;;;;;;;;;;4975687;28;93238;-77
2022/10/08 14:35:58;;;;;;;10.27;1.70;;;;;;;;;;4974745;28;94047;-77
2022/10/08 14:38:24;;;;;;;8.85;2.00;;;;;;;;;;4986048;28;92417;-77
2022/10/08 14:40:51;;;;;;;5.30;1.55;;;;;;;;;;4994631;28;92942;-77
2022/10/08 14:43:17;;;;;;;8.45;2.03;;;;;;;;;;4994332;28;94132;-77
2022/10/08 14:45:43;;;;;;;8.82;1.75;;;;;;;;;;4994230;28;92532;-77
2022/10/08 14:48:10;;;;;;;7.50;2.03;;;;;;;;;;4992949;28;94630;-77
2022/10/08 14:50:36;;;;;;;7.63;2.40;;;;;;;;;;4998016;28;94268;-77
2022/10/08 14:53:02;;;;;;;9.93;1.98;;;;;;;;;;4994125;28;94097;-79